LTCO

Ağrı Airport

Turkey
TAF LTCO 201340Z 2015/2024 VRB02KT 1600 BR BKN020
Issued Valid From Valid To
Jan-20 @ 13:40 UTC
(8 hours ago)
Jan-20 @ 15:00 UTC
(6 hours ago)
Jan-21 @ 00:00 UTC
(in 3 hours)
Jan-20 @ 15:00 to Jan-21 @ 00:00
TAF LTCO 201340Z 2015/2024 VRB02KT 1600 BR BKN020
Wind Visibility Clouds Conditions
Variable at 2 knots 1,593 meters
  • Broken at 2,000' AGL
  • Mist
TAF LTCO 201340Z 2015/2024 VRB02KT 1600 BR BKN020
Issued Jan-20 @ 13:40 UTC
(8 hours ago)
Valid From Jan-20 @ 15:00 UTC
(6 hours ago)
Valid To Jan-21 @ 00:00 UTC
(in 3 hours)
Jan-20 @ 15:00 - Jan-21 @ 00:00
Wind Visibility
Variable at 2 knots 1,593 meters
Clouds
  • Broken at 2,000' AGL
Conditions
  • Mist